sensor_id;sensor_type;location;lat;lon;timestamp;pressure;altitude;pressure_sealevel;temperature;humidity
53340;BME280;46212;50.258;19.062;2023-04-08T00:00:13;98650.88;;;3.34;97.71
53340;BME280;46212;50.258;19.062;2023-04-08T00:02:38;98651.91;;;3.47;97.45
53340;BME280;46212;50.258;19.062;2023-04-08T00:05:04;98654.44;;;3.27;97.75
53340;BME280;46212;50.258;19.062;2023-04-08T00:07:30;98648.84;;;3.41;98.20
53340;BME280;46212;50.258;19.062;2023-04-08T00:09:55;98653.44;;;3.51;97.87
53340;BME280;46212;50.258;19.062;2023-04-08T00:12:21;98651.22;;;3.39;97.42
53340;BME280;46212;50.258;19.062;2023-04-08T00:14:46;98653.22;;;3.35;97.50
53340;BME280;46212;50.258;19.062;2023-04-08T00:17:12;98650.09;;;3.33;97.43
53340;BME280;46212;50.258;19.062;2023-04-08T00:19:37;98660.13;;;3.43;97.10
53340;BME280;46212;50.258;19.062;2023-04-08T00:22:03;98659.03;;;3.37;96.96
53340;BME280;46212;50.258;19.062;2023-04-08T00:24:28;98665.19;;;3.45;97.09
53340;BME280;46212;50.258;19.062;2023-04-08T00:26:53;98672.63;;;3.74;95.36
53340;BME280;46212;50.258;19.062;2023-04-08T00:29:20;98668.69;;;3.79;94.36
53340;BME280;46212;50.258;19.062;2023-04-08T00:31:46;98672.78;;;3.64;94.15
53340;BME280;46212;50.258;19.062;2023-04-08T00:34:11;98668.56;;;3.56;94.55
53340;BME280;46212;50.258;19.062;2023-04-08T00:36:37;98678.03;;;3.48;94.55
53340;BME280;46212;50.258;19.062;2023-04-08T00:39:04;98673.00;;;3.43;95.34
53340;BME280;46212;50.258;19.062;2023-04-08T00:41:32;98666.56;;;3.26;96.30
53340;BME280;46212;50.258;19.062;2023-04-08T00:43:57;98666.00;;;3.42;96.22
53340;BME280;46212;50.258;19.062;2023-04-08T00:46:23;98672.44;;;3.58;95.61
53340;BME280;46212;50.258;19.062;2023-04-08T00:48:48;98675.63;;;3.53;94.76
53340;BME280;46212;50.258;19.062;2023-04-08T00:51:13;98676.22;;;3.68;94.36
53340;BME280;46212;50.258;19.062;2023-04-08T00:53:40;98667.31;;;3.64;93.18
53340;BME280;46212;50.258;19.062;2023-04-08T00:56:05;98674.31;;;3.65;92.71
53340;BME280;46212;50.258;19.062;2023-04-08T00:58:31;98680.53;;;3.69;92.40
53340;BME280;46212;50.258;19.062;2023-04-08T01:01:03;98684.28;;;3.48;92.53
53340;BME280;46212;50.258;19.062;2023-04-08T01:03:51;98689.16;;;3.64;92.47
53340;BME280;46212;50.258;19.062;2023-04-08T01:06:29;98686.91;;;3.55;91.23
53340;BME280;46212;50.258;19.062;2023-04-08T01:08:58;98691.19;;;3.56;91.05
53340;BME280;46212;50.258;19.062;2023-04-08T01:11:26;98686.91;;;3.55;91.66
53340;BME280;46212;50.258;19.062;2023-04-08T01:13:55;98687.28;;;3.57;91.77
53340;BME280;46212;50.258;19.062;2023-04-08T01:16:21;98691.69;;;3.48;92.38
53340;BME280;46212;50.258;19.062;2023-04-08T01:18:49;98696.81;;;3.42;92.34
53340;BME280;46212;50.258;19.062;2023-04-08T01:21:16;98691.41;;;3.35;92.76
53340;BME280;46212;50.258;19.062;2023-04-08T01:23:56;98692.25;;;3.32;91.34
53340;BME280;46212;50.258;19.062;2023-04-08T01:26:25;98695.97;;;3.49;91.00
53340;BME280;46212;50.258;19.062;2023-04-08T01:28:53;98693.34;;;3.38;90.09
53340;BME280;46212;50.258;19.062;2023-04-08T01:31:21;98693.31;;;3.42;89.50
53340;BME280;46212;50.258;19.062;2023-04-08T01:33:50;98697.63;;;3.39;89.67
53340;BME280;46212;50.258;19.062;2023-04-08T01:36:16;98687.91;;;3.35;89.92
53340;BME280;46212;50.258;19.062;2023-04-08T01:38:42;98693.84;;;3.26;90.81
53340;BME280;46212;50.258;19.062;2023-04-08T01:41:10;98696.50;;;3.33;90.74
53340;BME280;46212;50.258;19.062;2023-04-08T01:43:38;98702.84;;;3.23;90.91
53340;BME280;46212;50.258;19.062;2023-04-08T01:46:05;98707.50;;;3.26;90.42
53340;BME280;46212;50.258;19.062;2023-04-08T01:48:31;98706.78;;;3.18;90.78
53340;BME280;46212;50.258;19.062;2023-04-08T01:50:57;98709.06;;;3.23;90.68
53340;BME280;46212;50.258;19.062;2023-04-08T01:53:24;98706.38;;;3.20;90.80
53340;BME280;46212;50.258;19.062;2023-04-08T01:55:57;98700.66;;;3.07;90.54
53340;BME280;46212;50.258;19.062;2023-04-08T01:58:28;98707.69;;;3.01;90.93
53340;BME280;46212;50.258;19.062;2023-04-08T02:00:56;98709.38;;;2.88;91.24
53340;BME280;46212;50.258;19.062;2023-04-08T02:03:23;98709.78;;;2.87;90.96
53340;BME280;46212;50.258;19.062;2023-04-08T02:05:49;98708.63;;;2.84;90.83
53340;BME280;46212;50.258;19.062;2023-04-08T02:08:15;98714.47;;;2.83;91.63
53340;BME280;46212;50.258;19.062;2023-04-08T02:10:40;98711.38;;;2.84;91.30
53340;BME280;46212;50.258;19.062;2023-04-08T02:13:06;98710.59;;;2.84;90.54
53340;BME280;46212;50.258;19.062;2023-04-08T02:15:33;98709.84;;;2.76;90.46
53340;BME280;46212;50.258;19.062;2023-04-08T02:18:15;98717.66;;;2.78;90.62
53340;BME280;46212;50.258;19.062;2023-04-08T02:20:47;98720.03;;;2.72;90.54
53340;BME280;46212;50.258;19.062;2023-04-08T02:23:21;98725.19;;;2.59;90.72
53340;BME280;46212;50.258;19.062;2023-04-08T02:25:49;98721.69;;;2.59;90.82
53340;BME280;46212;50.258;19.062;2023-04-08T02:28:17;98728.28;;;2.58;91.22
53340;BME280;46212;50.258;19.062;2023-04-08T02:30:47;98725.19;;;2.59;91.18
53340;BME280;46212;50.258;19.062;2023-04-08T02:33:13;98732.16;;;2.60;91.15
53340;BME280;46212;50.258;19.062;2023-04-08T02:35:40;98729.84;;;2.62;91.39
53340;BME280;46212;50.258;19.062;2023-04-08T02:38:06;98722.44;;;2.63;91.39
53340;BME280;46212;50.258;19.062;2023-04-08T02:40:32;98728.63;;;2.67;91.52
53340;BME280;46212;50.258;19.062;2023-04-08T02:42:58;98734.50;;;2.65;90.80
53340;BME280;46212;50.258;19.062;2023-04-08T02:45:26;98724.72;;;2.68;90.97
53340;BME280;46212;50.258;19.062;2023-04-08T02:47:52;98729.88;;;2.55;91.17
53340;BME280;46212;50.258;19.062;2023-04-08T02:50:17;98738.06;;;2.52;91.21
53340;BME280;46212;50.258;19.062;2023-04-08T02:52:43;98737.31;;;2.48;91.45
53340;BME280;46212;50.258;19.062;2023-04-08T02:55:10;98736.59;;;2.40;91.44
53340;BME280;46212;50.258;19.062;2023-04-08T02:57:37;98744.78;;;2.33;91.36
53340;BME280;46212;50.258;19.062;2023-04-08T03:00:04;98742.19;;;2.12;92.25
53340;BME280;46212;50.258;19.062;2023-04-08T03:02:30;98753.13;;;1.91;93.08
53340;BME280;46212;50.258;19.062;2023-04-08T03:04:55;98751.63;;;1.86;94.09
53340;BME280;46212;50.258;19.062;2023-04-08T03:07:20;98753.56;;;1.86;94.45
53340;BME280;46212;50.258;19.062;2023-04-08T03:09:46;98754.38;;;1.72;94.46
53340;BME280;46212;50.258;19.062;2023-04-08T03:12:11;98751.97;;;1.92;94.74
53340;BME280;46212;50.258;19.062;2023-04-08T03:14:36;98762.88;;;1.88;93.92
53340;BME280;46212;50.258;19.062;2023-04-08T03:17:02;98752.78;;;1.85;94.67
53340;BME280;46212;50.258;19.062;2023-04-08T03:19:27;98753.56;;;1.82;94.60
53340;BME280;46212;50.258;19.062;2023-04-08T03:21:53;98749.22;;;1.99;93.95
53340;BME280;46212;50.258;19.062;2023-04-08T03:24:18;98751.97;;;1.95;93.69
53340;BME280;46212;50.258;19.062;2023-04-08T03:26:43;98761.72;;;1.82;94.01
53340;BME280;46212;50.258;19.062;2023-04-08T03:29:09;98755.84;;;2.01;94.34
53340;BME280;46212;50.258;19.062;2023-04-08T03:31:35;98757.34;;;2.13;93.48
53340;BME280;46212;50.258;19.062;2023-04-08T03:34:00;98757.34;;;2.13;93.47
53340;BME280;46212;50.258;19.062;2023-04-08T03:36:25;98772.19;;;1.98;93.76
53340;BME280;46212;50.258;19.062;2023-04-08T03:38:51;98765.94;;;2.01;94.00
53340;BME280;46212;50.258;19.062;2023-04-08T03:41:16;98767.56;;;1.84;94.86
53340;BME280;46212;50.258;19.062;2023-04-08T03:43:42;98776.88;;;1.90;95.12
53340;BME280;46212;50.258;19.062;2023-04-08T03:46:07;98774.56;;;1.85;95.30
53340;BME280;46212;50.258;19.062;2023-04-08T03:48:32;98778.44;;;1.91;95.10
53340;BME280;46212;50.258;19.062;2023-04-08T03:50:58;98774.56;;;1.85;95.28
53340;BME280;46212;50.258;19.062;2023-04-08T03:53:23;98772.97;;;1.91;95.60
53340;BME280;46212;50.258;19.062;2023-04-08T03:55:49;98788.53;;;2.01;95.06
53340;BME280;46212;50.258;19.062;2023-04-08T03:58:17;98774.47;;;2.10;94.25
53340;BME280;46212;50.258;19.062;2023-04-08T04:00:43;98785.00;;;2.04;93.72
53340;BME280;46212;50.258;19.062;2023-04-08T04:03:08;98789.28;;;2.09;94.14
53340;BME280;46212;50.258;19.062;2023-04-08T04:05:37;98784.19;;;2.14;93.74
53340;BME280;46212;50.258;19.062;2023-04-08T04:08:02;98796.22;;;2.24;93.02
53340;BME280;46212;50.258;19.062;2023-04-08T04:10:28;98792.75;;;2.09;92.88
53340;BME280;46212;50.258;19.062;2023-04-08T04:12:53;98797.41;;;2.12;93.07
53340;BME280;46212;50.258;19.062;2023-04-08T04:15:19;98797.06;;;2.00;93.77
53340;BME280;46212;50.258;19.062;2023-04-08T04:17:47;98802.94;;;1.88;94.79
53340;BME280;46212;50.258;19.062;2023-04-08T04:20:13;98804.09;;;1.90;94.97
53340;BME280;46212;50.258;19.062;2023-04-08T04:22:38;98806.03;;;2.00;94.39
53340;BME280;46212;50.258;19.062;2023-04-08T04:25:04;98805.59;;;2.12;94.38
53340;BME280;46212;50.258;19.062;2023-04-08T04:27:30;98809.50;;;2.19;93.15
53340;BME280;46212;50.258;19.062;2023-04-08T04:29:55;98823.50;;;2.10;93.78
53340;BME280;46212;50.258;19.062;2023-04-08T04:32:21;98811.06;;;2.09;93.88
53340;BME280;46212;50.258;19.062;2023-04-08T04:34:46;98813.81;;;2.09;93.83
53340;BME280;46212;50.258;19.062;2023-04-08T04:37:11;98814.91;;;2.22;93.84
53340;BME280;46212;50.258;19.062;2023-04-08T04:39:37;98816.44;;;2.27;93.40
53340;BME280;46212;50.258;19.062;2023-04-08T04:42:03;98813.34;;;2.25;93.11
53340;BME280;46212;50.258;19.062;2023-04-08T04:44:28;98813.75;;;2.16;93.56
53340;BME280;46212;50.258;19.062;2023-04-08T04:46:54;98817.31;;;2.02;93.97
53340;BME280;46212;50.258;19.062;2023-04-08T04:49:20;98823.56;;;1.92;94.82
53340;BME280;46212;50.258;19.062;2023-04-08T04:51:45;98824.72;;;1.95;95.14
53340;BME280;46212;50.258;19.062;2023-04-08T04:54:11;98829.38;;;2.01;95.80
53340;BME280;46212;50.258;19.062;2023-04-08T04:56:36;98830.09;;;2.12;95.17
53340;BME280;46212;50.258;19.062;2023-04-08T04:59:02;98836.31;;;2.20;95.30
53340;BME280;46212;50.258;19.062;2023-04-08T05:01:29;98830.50;;;2.25;95.05
53340;BME280;46212;50.258;19.062;2023-04-08T05:03:54;98837.88;;;2.21;94.88
53340;BME280;46212;50.258;19.062;2023-04-08T05:06:22;98840.53;;;2.35;95.03
53340;BME280;46212;50.258;19.062;2023-04-08T05:08:47;98839.81;;;2.28;94.93
53340;BME280;46212;50.258;19.062;2023-04-08T05:11:13;98848.69;;;2.42;94.98
53340;BME280;46212;50.258;19.062;2023-04-08T05:13:38;98849.41;;;2.57;94.43
53340;BME280;46212;50.258;19.062;2023-04-08T05:16:04;98835.34;;;2.69;92.89
53340;BME280;46212;50.258;19.062;2023-04-08T05:18:29;98843.09;;;2.74;92.03
53340;BME280;46212;50.258;19.062;2023-04-08T05:20:55;98850.06;;;2.86;90.74
53340;BME280;46212;50.258;19.062;2023-04-08T05:23:20;98850.03;;;2.89;90.47
53340;BME280;46212;50.258;19.062;2023-04-08T05:25:45;98858.66;;;2.81;90.37
53340;BME280;46212;50.258;19.062;2023-04-08T05:28:11;98851.97;;;2.92;90.17
53340;BME280;46212;50.258;19.062;2023-04-08T05:30:37;98862.56;;;2.80;90.39
53340;BME280;46212;50.258;19.062;2023-04-08T05:33:02;98853.56;;;2.83;90.63
53340;BME280;46212;50.258;19.062;2023-04-08T05:35:28;98867.28;;;2.72;91.39
53340;BME280;46212;50.258;19.062;2023-04-08T05:37:53;98861.69;;;2.97;90.85
53340;BME280;46212;50.258;19.062;2023-04-08T05:40:18;98860.88;;;3.00;90.19
53340;BME280;46212;50.258;19.062;2023-04-08T05:42:44;98867.44;;;3.13;89.87
53340;BME280;46212;50.258;19.062;2023-04-08T05:45:10;98872.81;;;3.23;88.95
53340;BME280;46212;50.258;19.062;2023-04-08T05:47:35;98872.72;;;3.38;87.96
53340;BME280;46212;50.258;19.062;2023-04-08T05:50:00;98883.69;;;3.31;88.03
53340;BME280;46212;50.258;19.062;2023-04-08T05:52:26;98872.00;;;3.30;87.78
53340;BME280;46212;50.258;19.062;2023-04-08T05:54:51;98879.75;;;3.39;87.36
53340;BME280;46212;50.258;19.062;2023-04-08T05:57:16;98881.34;;;3.33;86.91
53340;BME280;46212;50.258;19.062;2023-04-08T05:59:42;98878.63;;;3.33;87.42
53340;BME280;46212;50.258;19.062;2023-04-08T06:02:07;98880.88;;;3.45;87.89
53340;BME280;46212;50.258;19.062;2023-04-08T06:04:33;98885.88;;;3.50;87.95
53340;BME280;46212;50.258;19.062;2023-04-08T06:06:58;98888.94;;;3.59;87.91
53340;BME280;46212;50.258;19.062;2023-04-08T06:09:26;98892.13;;;3.50;87.83
53340;BME280;46212;50.258;19.062;2023-04-08T06:11:52;98887.00;;;3.56;88.06
53340;BME280;46212;50.258;19.062;2023-04-08T06:14:17;98897.50;;;3.64;88.35
53340;BME280;46212;50.258;19.062;2023-04-08T06:16:42;98895.59;;;4.02;86.45
53340;BME280;46212;50.258;19.062;2023-04-08T06:19:08;98900.94;;;4.16;85.56
53340;BME280;46212;50.258;19.062;2023-04-08T06:21:33;98908.16;;;4.37;84.99
53340;BME280;46212;50.258;19.062;2023-04-08T06:23:59;98901.81;;;4.44;85.52
53340;BME280;46212;50.258;19.062;2023-04-08T06:26:24;98904.31;;;4.65;85.29
53340;BME280;46212;50.258;19.062;2023-04-08T06:28:50;98901.69;;;4.88;83.02
53340;BME280;46212;50.258;19.062;2023-04-08T06:31:16;98912.88;;;5.01;81.04
53340;BME280;46212;50.258;19.062;2023-04-08T06:33:41;98914.50;;;4.95;80.87
53340;BME280;46212;50.258;19.062;2023-04-08T06:36:07;98927.25;;;5.05;80.77
53340;BME280;46212;50.258;19.062;2023-04-08T06:38:32;98918.97;;;4.81;79.77
53340;BME280;46212;50.258;19.062;2023-04-08T06:41:05;98926.28;;;4.58;79.84
53340;BME280;46212;50.258;19.062;2023-04-08T06:43:31;98934.78;;;4.63;80.41
53340;BME280;46212;50.258;19.062;2023-04-08T06:45:56;98930.88;;;4.64;79.98
53340;BME280;46212;50.258;19.062;2023-04-08T06:48:25;98935.91;;;4.69;80.53
53340;BME280;46212;50.258;19.062;2023-04-08T06:50:57;98932.31;;;4.76;80.65
53340;BME280;46212;50.258;19.062;2023-04-08T06:53:23;98931.88;;;4.81;80.59
53340;BME280;46212;50.258;19.062;2023-04-08T06:55:49;98941.28;;;4.76;79.60
53340;BME280;46212;50.258;19.062;2023-04-08T06:58:14;98928.03;;;4.75;79.72
53340;BME280;46212;50.258;19.062;2023-04-08T07:00:41;98934.59;;;4.81;78.98
53340;BME280;46212;50.258;19.062;2023-04-08T07:03:06;98938.56;;;4.76;79.69
53340;BME280;46212;50.258;19.062;2023-04-08T07:05:34;98942.78;;;4.85;79.73
53340;BME280;46212;50.258;19.062;2023-04-08T07:08:01;98948.94;;;4.92;78.16
53340;BME280;46212;50.258;19.062;2023-04-08T07:10:26;98945.91;;;4.83;78.21
53340;BME280;46212;50.258;19.062;2023-04-08T07:12:53;98954.41;;;4.92;78.44
53340;BME280;46212;50.258;19.062;2023-04-08T07:15:18;98942.66;;;4.92;78.81
53340;BME280;46212;50.258;19.062;2023-04-08T07:17:43;98947.97;;;4.75;79.20
53340;BME280;46212;50.258;19.062;2023-04-08T07:20:09;98948.31;;;4.77;78.79
53340;BME280;46212;50.258;19.062;2023-04-08T07:22:35;98949.34;;;4.91;78.22
53340;BME280;46212;50.258;19.062;2023-04-08T07:25:00;98953.19;;;4.97;78.30
53340;BME280;46212;50.258;19.062;2023-04-08T07:27:27;98958.97;;;5.02;79.08
53340;BME280;46212;50.258;19.062;2023-04-08T07:29:53;98962.31;;;5.17;79.45
53340;BME280;46212;50.258;19.062;2023-04-08T07:32:19;98954.38;;;5.26;78.24
53340;BME280;46212;50.258;19.062;2023-04-08T07:34:45;98959.28;;;5.38;79.03
53340;BME280;46212;50.258;19.062;2023-04-08T07:37:11;98965.03;;;5.47;78.22
53340;BME280;46212;50.258;19.062;2023-04-08T07:39:36;98965.78;;;5.51;77.10
53340;BME280;46212;50.258;19.062;2023-04-08T07:42:01;98972.16;;;5.68;76.96
53340;BME280;46212;50.258;19.062;2023-04-08T07:44:27;98974.06;;;5.71;75.80
53340;BME280;46212;50.258;19.062;2023-04-08T07:46:52;98965.09;;;5.70;74.98
53340;BME280;46212;50.258;19.062;2023-04-08T07:49:18;98972.84;;;5.75;74.84
53340;BME280;46212;50.258;19.062;2023-04-08T07:51:43;98974.63;;;5.89;74.78
53340;BME280;46212;50.258;19.062;2023-04-08T07:54:08;98962.00;;;5.95;74.01
53340;BME280;46212;50.258;19.062;2023-04-08T07:56:41;98964.88;;;5.84;74.54
53340;BME280;46212;50.258;19.062;2023-04-08T07:59:11;98961.22;;;5.95;75.15
53340;BME280;46212;50.258;19.062;2023-04-08T08:01:37;98957.59;;;6.01;73.75
53340;BME280;46212;50.258;19.062;2023-04-08T08:04:02;98955.25;;;6.00;74.31
53340;BME280;46212;50.258;19.062;2023-04-08T08:06:28;98964.94;;;6.08;74.14
53340;BME280;46212;50.258;19.062;2023-04-08T08:08:56;98973.22;;;6.27;74.63
53340;BME280;46212;50.258;19.062;2023-04-08T08:11:22;98976.31;;;6.29;72.97
53340;BME280;46212;50.258;19.062;2023-04-08T08:13:48;98982.91;;;6.32;73.36
53340;BME280;46212;50.258;19.062;2023-04-08T08:16:13;98976.41;;;6.46;72.87
53340;BME280;46212;50.258;19.062;2023-04-08T08:18:39;98987.97;;;6.57;71.96
53340;BME280;46212;50.258;19.062;2023-04-08T08:21:05;98976.53;;;6.62;72.68
53340;BME280;46212;50.258;19.062;2023-04-08T08:23:31;98980.75;;;6.86;72.66
53340;BME280;46212;50.258;19.062;2023-04-08T08:26:05;98983.09;;;6.87;71.03
53340;BME280;46212;50.258;19.062;2023-04-08T08:28:31;98974.69;;;7.14;71.08
53340;BME280;46212;50.258;19.062;2023-04-08T08:30:57;98979.28;;;7.21;71.44
53340;BME280;46212;50.258;19.062;2023-04-08T08:33:23;98980.50;;;7.20;69.96
53340;BME280;46212;50.258;19.062;2023-04-08T08:35:49;98980.84;;;7.22;69.98
53340;BME280;46212;50.258;19.062;2023-04-08T08:38:14;98982.66;;;7.09;70.06
53340;BME280;46212;50.258;19.062;2023-04-08T08:40:42;98980.44;;;7.04;69.64
53340;BME280;46212;50.258;19.062;2023-04-08T08:43:08;98983.53;;;7.06;69.47
53340;BME280;46212;50.258;19.062;2023-04-08T08:45:38;98984.88;;;6.98;70.23
53340;BME280;46212;50.258;19.062;2023-04-08T08:48:03;98985.22;;;7.00;70.07
53340;BME280;46212;50.258;19.062;2023-04-08T08:50:30;98994.56;;;7.22;69.65
53340;BME280;46212;50.258;19.062;2023-04-08T08:52:55;99002.50;;;7.36;69.92
53340;BME280;46212;50.258;19.062;2023-04-08T08:55:21;99000.59;;;7.33;69.18
53340;BME280;46212;50.258;19.062;2023-04-08T08:57:49;99006.31;;;7.42;70.40
53340;BME280;46212;50.258;19.062;2023-04-08T09:00:15;99007.91;;;7.59;69.58
53340;BME280;46212;50.258;19.062;2023-04-08T09:02:41;99016.16;;;7.59;69.09
53340;BME280;46212;50.258;19.062;2023-04-08T09:05:07;99016.41;;;7.65;68.28
53340;BME280;46212;50.258;19.062;2023-04-08T09:07:37;99016.34;;;7.68;68.48
53340;BME280;46212;50.258;19.062;2023-04-08T09:10:06;99016.16;;;7.59;68.73
53340;BME280;46212;50.258;19.062;2023-04-08T09:12:32;99017.47;;;7.71;69.87
53340;BME280;46212;50.258;19.062;2023-04-08T09:17:31;99026.47;;;8.07;68.15
53340;BME280;46212;50.258;19.062;2023-04-08T09:20:05;99020.63;;;8.37;67.54
53340;BME280;46212;50.258;19.062;2023-04-08T09:25:30;99019.94;;;8.66;64.87
53340;BME280;46212;50.258;19.062;2023-04-08T09:27:57;99035.69;;;8.49;65.38
53340;BME280;46212;50.258;19.062;2023-04-08T09:30:26;99019.44;;;8.38;66.12
53340;BME280;46212;50.258;19.062;2023-04-08T09:32:56;99033.81;;;8.46;65.58
53340;BME280;46212;50.258;19.062;2023-04-08T09:35:23;99025.53;;;8.62;66.55
53340;BME280;46212;50.258;19.062;2023-04-08T09:37:49;99030.97;;;8.66;65.66
53340;BME280;46212;50.258;19.062;2023-04-08T09:40:15;99031.69;;;8.82;65.19
53340;BME280;46212;50.258;19.062;2023-04-08T09:42:44;99023.38;;;8.98;65.32
53340;BME280;46212;50.258;19.062;2023-04-08T09:45:11;99028.25;;;9.07;64.25
53340;BME280;46212;50.258;19.062;2023-04-08T09:47:55;99029.94;;;8.88;62.82
53340;BME280;46212;50.258;19.062;2023-04-08T09:50:27;99036.09;;;9.08;63.36
53340;BME280;46212;50.258;19.062;2023-04-08T09:53:06;99028.13;;;9.27;63.37
53340;BME280;46212;50.258;19.062;2023-04-08T09:55:35;99026.19;;;9.11;62.27
53340;BME280;46212;50.258;19.062;2023-04-08T09:58:10;99040.41;;;9.38;62.76
53340;BME280;46212;50.258;19.062;2023-04-08T10:00:45;99035.56;;;9.55;62.09
53340;BME280;46212;50.258;19.062;2023-04-08T10:03:34;99032.16;;;9.51;60.90
53340;BME280;46212;50.258;19.062;2023-04-08T10:06:02;99034.75;;;9.42;60.29
53340;BME280;46212;50.258;19.062;2023-04-08T10:08:29;99020.88;;;9.45;61.56
53340;BME280;46212;50.258;19.062;2023-04-08T10:10:55;99032.69;;;9.46;60.84
53340;BME280;46212;50.258;19.062;2023-04-08T10:13:22;99036.16;;;9.63;59.50
53340;BME280;46212;50.258;19.062;2023-04-08T10:15:47;99033.09;;;9.86;58.60
53340;BME280;46212;50.258;19.062;2023-04-08T10:23:07;99041.94;;;10.31;57.65
53340;BME280;46212;50.258;19.062;2023-04-08T10:25:34;99033.72;;;10.53;57.15
53340;BME280;46212;50.258;19.062;2023-04-08T10:28:00;99045.19;;;10.64;55.73
53340;BME280;46212;50.258;19.062;2023-04-08T10:32:56;99033.00;;;10.87;55.61
53340;BME280;46212;50.258;19.062;2023-04-08T10:35:35;99039.50;;;10.93;56.60
53340;BME280;46212;50.258;19.062;2023-04-08T10:38:01;99047.59;;;10.87;55.80
53340;BME280;46212;50.258;19.062;2023-04-08T10:40:27;99043.34;;;10.48;55.01
53340;BME280;46212;50.258;19.062;2023-04-08T10:42:58;99049.13;;;10.16;55.21
53340;BME280;46212;50.258;19.062;2023-04-08T10:45:24;99042.28;;;10.21;55.24
53340;BME280;46212;50.258;19.062;2023-04-08T10:47:50;99061.91;;;10.35;55.15
53340;BME280;46212;50.258;19.062;2023-04-08T10:50:18;99052.41;;;10.49;55.45
53340;BME280;46212;50.258;19.062;2023-04-08T10:52:47;99050.53;;;10.58;54.62
53340;BME280;46212;50.258;19.062;2023-04-08T10:55:13;99052.16;;;10.69;55.70
53340;BME280;46212;50.258;19.062;2023-04-08T10:57:39;99051.44;;;10.90;57.40
53340;BME280;46212;50.258;19.062;2023-04-08T11:00:10;99046.53;;;11.06;54.85
53340;BME280;46212;50.258;19.062;2023-04-08T11:02:39;99048.88;;;11.39;54.79
53340;BME280;46212;50.258;19.062;2023-04-08T11:05:05;99047.38;;;11.38;53.43
53340;BME280;46212;50.258;19.062;2023-04-08T11:07:31;99045.16;;;11.33;54.17
53340;BME280;46212;50.258;19.062;2023-04-08T11:09:57;99053.28;;;11.27;55.02
53340;BME280;46212;50.258;19.062;2023-04-08T11:12:26;99049.59;;;11.52;54.70
53340;BME280;46212;50.258;19.062;2023-04-08T11:14:52;99044.28;;;11.57;53.63
53340;BME280;46212;50.258;19.062;2023-04-08T11:17:18;99043.34;;;11.39;54.11
53340;BME280;46212;50.258;19.062;2023-04-08T11:19:45;99041.31;;;11.30;55.13
53340;BME280;46212;50.258;19.062;2023-04-08T11:22:11;99042.63;;;11.04;54.96
53340;BME280;46212;50.258;19.062;2023-04-08T11:24:37;99047.59;;;10.87;56.16
53340;BME280;46212;50.258;19.062;2023-04-08T11:27:03;99038.63;;;10.83;56.82
53340;BME280;46212;50.258;19.062;2023-04-08T11:29:32;99048.75;;;10.52;55.66
53340;BME280;46212;50.258;19.062;2023-04-08T11:31:58;99043.16;;;10.43;55.66
53340;BME280;46212;50.258;19.062;2023-04-08T11:34:24;99049.22;;;10.38;55.56
53340;BME280;46212;50.258;19.062;2023-04-08T11:36:51;99052.31;;;10.40;55.88
53340;BME280;46212;50.258;19.062;2023-04-08T11:39:17;99052.94;;;10.56;56.53
53340;BME280;46212;50.258;19.062;2023-04-08T11:41:46;99042.06;;;10.87;55.80
53340;BME280;46212;50.258;19.062;2023-04-08T11:44:12;99056.56;;;11.13;54.31
53340;BME280;46212;50.258;19.062;2023-04-08T11:46:37;99049.28;;;11.06;53.79
53340;BME280;46212;50.258;19.062;2023-04-08T11:49:06;99046.81;;;10.87;54.11
53340;BME280;46212;50.258;19.062;2023-04-08T11:51:33;99048.44;;;10.25;55.55
53340;BME280;46212;50.258;19.062;2023-04-08T11:54:03;99046.53;;;9.71;57.24
53340;BME280;46212;50.258;19.062;2023-04-08T11:56:29;99054.16;;;9.67;57.73
53340;BME280;46212;50.258;19.062;2023-04-08T11:58:55;99053.38;;;9.79;57.95
53340;BME280;46212;50.258;19.062;2023-04-08T12:01:20;99047.53;;;9.77;58.37
53340;BME280;46212;50.258;19.062;2023-04-08T12:03:56;99050.84;;;9.72;58.73
53340;BME280;46212;50.258;19.062;2023-04-08T12:06:22;99055.66;;;9.68;59.02
53340;BME280;46212;50.258;19.062;2023-04-08T12:08:49;99050.50;;;9.57;59.08
53340;BME280;46212;50.258;19.062;2023-04-08T12:11:14;99057.09;;;9.60;59.31
53340;BME280;46212;50.258;19.062;2023-04-08T12:13:40;99049.94;;;9.63;59.91
53340;BME280;46212;50.258;19.062;2023-04-08T12:16:06;99048.72;;;9.64;59.97
53340;BME280;46212;50.258;19.062;2023-04-08T12:18:32;99049.16;;;9.62;59.78
53340;BME280;46212;50.258;19.062;2023-04-08T12:20:57;99045.41;;;9.56;60.77
53340;BME280;46212;50.258;19.062;2023-04-08T12:23:23;99047.72;;;9.57;61.03
53340;BME280;46212;50.258;19.062;2023-04-08T12:25:48;99048.47;;;9.58;61.74
53340;BME280;46212;50.258;19.062;2023-04-08T12:28:14;99046.16;;;9.44;62.52
53340;BME280;46212;50.258;19.062;2023-04-08T12:30:39;99034.56;;;9.49;62.45
53340;BME280;46212;50.258;19.062;2023-04-08T12:33:05;99045.66;;;9.33;62.88
53340;BME280;46212;50.258;19.062;2023-04-08T12:35:30;99052.91;;;9.27;63.52
53340;BME280;46212;50.258;19.062;2023-04-08T12:37:56;99049.28;;;9.30;63.63
53340;BME280;46212;50.258;19.062;2023-04-08T12:40:21;99045.75;;;9.29;63.72
53340;BME280;46212;50.258;19.062;2023-04-08T12:42:47;99054.72;;;9.33;63.60
53340;BME280;46212;50.258;19.062;2023-04-08T12:45:12;99046.44;;;9.33;64.35
53340;BME280;46212;50.258;19.062;2023-04-08T12:47:38;99042.72;;;9.40;63.08
53340;BME280;46212;50.258;19.062;2023-04-08T12:50:04;99047.91;;;9.38;63.45
53340;BME280;46212;50.258;19.062;2023-04-08T12:52:29;99056.34;;;9.31;63.60
53340;BME280;46212;50.258;19.062;2023-04-08T12:54:55;99061.91;;;9.15;64.15
53340;BME280;46212;50.258;19.062;2023-04-08T12:57:20;99062.19;;;9.04;65.37
53340;BME280;46212;50.258;19.062;2023-04-08T12:59:46;99050.25;;;8.94;65.91
53340;BME280;46212;50.258;19.062;2023-04-08T13:02:11;99060.59;;;8.90;65.54
53340;BME280;46212;50.258;19.062;2023-04-08T13:04:37;99053.56;;;8.73;66.67
53340;BME280;46212;50.258;19.062;2023-04-08T13:07:02;99057.63;;;8.69;67.17
53340;BME280;46212;50.258;19.062;2023-04-08T13:09:29;99061.97;;;8.82;66.24